Hébergeur de fichiers indépendant

À propos

Type de fichier
Fichier GPX de 26 Ko (application/xml)
Confidentialité
Fichier public, envoyé le 13 février 2019 à 14:19, depuis l'adresse IP 193.253.x.x (France)
Sécurité
Ne contient aucun Virus ou Malware connus - Dernière vérification: 2 jours
Statistiques
La présente page de téléchargement a été vue 51 fois depuis l'envoi du fichier
Page de téléchargement

Aperçu du fichier


<?xml version="1.0" encoding="UTF-8" ?>
<gpx version="1.0" xmlns:xsi="http://www.w3.org/2001/XMLSchema-instance"
	xmlns="http://www.topografix.com/GPX/1/0"
	xsi:schemaLocation="http://www.topografix.com/GPX/1/0 http://www.topografix.com/GPX/1/0/gpx.xsd"
	creator="https://www.openrunner.com">	<trk>
					<name>9536318-pedestre st p</name>
					<trkseg>
				<trkpt lat="46.058070" lon="1.282110">
					<ele>370</ele>
					<time>2019-02-10T15:56:44Z</time>
				</trkpt>
				<trkpt lat="46.057430" lon="1.282920">
					<ele>372</ele>
					<time>2019-02-10T15:57:44Z</time>
				</trkpt>
				<trkpt lat="46.056890" lon="1.283140">
					<ele>376</ele>
					<time>2019-02-10T15:58:44Z</time>
				</trkpt>
				<trkpt lat="46.056660" lon="1.283320">
					<ele>378</ele>
					<time>2019-02-10T15:59:44Z</time>
				</trkpt>
				<trkpt lat="46.056590" lon="1.283730">
					<ele>380</ele>
					<time>2019-02-10T16:00:44Z</time>
				</trkpt>
				<trkpt lat="46.056440" lon="1.285310">
					<ele>381</ele>
					<time>2019-02-10T16:01:44Z</time>
				</trkpt>
				<trkpt lat="46.056340" lon="1.286070">
					<ele>380</ele>
					<time>2019-02-10T16:02:44Z</time>
				</trkpt>
				<trkpt lat="46.056320" lon="1.286740">
					<ele>380</ele>
					<time>2019-02-10T16:03:44Z</time>
				</trkpt>
				<trkpt lat="46.056400" lon="1.287570">
					<ele>380</ele>
					<time>2019-02-10T16:04:44Z</time>
				</trkpt>
				<trkpt lat="46.056330" lon="1.288480">
					<ele>381</ele>
					<time>2019-02-10T16:05:44Z</time>
				</trkpt>
				<trkpt lat="46.056100" lon="1.289610">
					<ele>381</ele>
					<time>2019-02-10T16:06:44Z</time>
				</trkpt>
				<trkpt lat="46.056050" lon="1.290780">
					<ele>384</ele>
					<time>2019-02-10T16:07:44Z</time>
				</trkpt>
				<trkpt lat="46.056110" lon="1.295710">
					<ele>393</ele>
					<time>2019-02-10T16:08:44Z</time>
				</trkpt>
				<trkpt lat="46.056480" lon="1.296390">
					<ele>394</ele>
					<time>2019-02-10T16:09:44Z</time>
				</trkpt>
				<trkpt lat="46.056470" lon="1.297560">
					<ele>400</ele>
					<time>2019-02-10T16:10:44Z</time>
				</trkpt>
				<trkpt lat="46.056590" lon="1.298150">
					<ele>403</ele>
					<time>2019-02-10T16:11:44Z</time>
				</trkpt>
				<trkpt lat="46.056700" lon="1.298910">
					<ele>405</ele>
					<time>2019-02-10T16:12:44Z</time>
				</trkpt>
				<trkpt lat="46.056780" lon="1.299560">
					<ele>405</ele>
					<time>2019-02-10T16:13:44Z</time>
				</trkpt>
				<trkpt lat="46.057320" lon="1.300530">
					<ele>405</ele>
					<time>2019-02-10T16:14:44Z</time>
				</trkpt>
				<trkpt lat="46.059270" lon="1.299390">
					<ele>401</ele>
					<time>2019-02-10T16:15:44Z</time>
				</trkpt>
				<trkpt lat="46.059710" lon="1.299500">
					<ele>401</ele>
					<time>2019-02-10T16:16:44Z</time>
				</trkpt>
				<trkpt lat="46.060070" lon="1.299820">
					<ele>401</ele>
					<time>2019-02-10T16:17:44Z</time>
				</trkpt>
				<trkpt lat="46.060290" lon="1.299500">
					<ele>399</ele>
					<time>2019-02-10T16:18:44Z</time>
				</trkpt>
				<trkpt lat="46.062240" lon="1.299420">
					<ele>393</ele>
					<time>2019-02-10T16:19:44Z</time>
				</trkpt>
				<trkpt lat="46.063080" lon="1.298920">
					<ele>393</ele>
					<time>2019-02-10T16:20:44Z</time>
				</trkpt>
				<trkpt lat="46.063530" lon="1.299410">
					<ele>392</ele>
					<time>2019-02-10T16:21:44Z</time>
				</trkpt>
				<trkpt lat="46.063900" lon="1.299970">
					<ele>390</ele>
					<time>2019-02-10T16:22:44Z</time>
				</trkpt>
				<trkpt lat="46.064140" lon="1.300830">
					<ele>392</ele>
					<time>2019-02-10T16:23:44Z</time>
				</trkpt>
				<trkpt lat="46.064320" lon="1.302400">
					<ele>395</ele>
					<time>2019-02-10T16:24:44Z</time>
				</trkpt>
				<trkpt lat="46.064560" lon="1.303290">
					<ele>395</ele>
					<time>2019-02-10T16:25:44Z</time>
				</trkpt>
				<trkpt lat="46.064710" lon="1.303900">
					<ele>395</ele>
					<time>2019-02-10T16:26:44Z</time>
				</trkpt>
				<trkpt lat="46.064700" lon="1.305300">
					<ele>397</ele>
					<time>2019-02-10T16:27:44Z</time>
				</trkpt>
				<trkpt lat="46.065800" lon="1.306150">
					<ele>395</ele>
					<time>2019-02-10T16:28:44Z</time>
				</trkpt>
				<trkpt lat="46.065980" lon="1.305500">
					<ele>395</ele>
					<time>2019-02-10T16:29:44Z</time>
				</trkpt>
				<trkpt lat="46.066270" lon="1.304670">
					<ele>395</ele>
					<time>2019-02-10T16:30:44Z</time>
				</trkpt>
				<trkpt lat="46.066690" lon="1.303790">
					<ele>392</ele>
					<time>2019-02-10T16:31:44Z</time>
				</trkpt>
				<trkpt lat="46.067100" lon="1.303130">
					<ele>392</ele>
					<time>2019-02-10T16:32:44Z</time>
				</trkpt>
				<trkpt lat="46.067410" lon="1.302820">
					<ele>393</ele>
					<time>2019-02-10T16:33:44Z</time>
				</trkpt>
				<trkpt lat="46.067880" lon="1.303190">
					<ele>397</ele>
					<time>2019-02-10T16:34:44Z</time>
				</trkpt>
				<trkpt lat="46.068500" lon="1.304280">
					<ele>403</ele>
					<time>2019-02-10T16:35:44Z</time>
				</trkpt>
				<trkpt lat="46.068840" lon="1.305050">
					<ele>404</ele>
					<time>2019-02-10T16:36:44Z</time>
				</trkpt>
				<trkpt lat="46.069390" lon="1.305610">
					<ele>405</ele>
					<time>2019-02-10T16:37:44Z</time>
				</trkpt>
				<trkpt lat="46.070170" lon="1.306050">
					<ele>405</ele>
					<time>2019-02-10T16:38:44Z</time>
				</trkpt>
				<trkpt lat="46.070790" lon="1.304570">
					<ele>401</ele>
					<time>2019-02-10T16:39:44Z</time>
				</trkpt>
				<trkpt lat="46.071460" lon="1.303650">
					<ele>399</ele>
					<time>2019-02-10T16:40:44Z</time>
				</trkpt>
				<trkpt lat="46.072480" lon="1.302730">
					<ele>397</ele>
					<time>2019-02-10T16:41:44Z</time>
				</trkpt>
				<trkpt lat="46.073050" lon="1.302060">
					<ele>398</ele>
					<time>2019-02-10T16:42:44Z</time>
				</trkpt>
				<trkpt lat="46.073920" lon="1.300890">
					<ele>402</ele>
					<time>2019-02-10T16:43:44Z</time>
				</trkpt>
				<trkpt lat="46.074490" lon="1.300510">
					<ele>405</ele>
					<time>2019-02-10T16:44:44Z</time>
				</trkpt>
				<trkpt lat="46.074790" lon="1.300270">
					<ele>407</ele>
					<time>2019-02-10T16:45:44Z</time>
				</trkpt>
				<trkpt lat="46.075480" lon="1.300230">
					<ele>409</ele>
					<time>2019-02-10T16:46:44Z</time>
				</trkpt>
				<trkpt lat="46.075720" lon="1.300270">
					<ele>409</ele>
					<time>2019-02-10T16:47:44Z</time>
				</trkpt>
				<trkpt lat="46.076330" lon="1.299970">
					<ele>412</ele>
					<time>2019-02-10T16:48:44Z</time>
				</trkpt>
				<trkpt lat="46.077330" lon="1.299740">
					<ele>416</ele>
					<time>2019-02-10T16:49:44Z</time>
				</trkpt>
				<trkpt lat="46.078010" lon="1.299330">
					<ele>424</ele>
					<time>2019-02-10T16:50:44Z</time>
				</trkpt>
				<trkpt lat="46.078750" lon="1.298590">
					<ele>442</ele>
					<time>2019-02-10T16:51:44Z</time>
				</trkpt>
				<trkpt lat="46.079530" lon="1.298260">
					<ele>456</ele>
					<time>2019-02-10T16:52:44Z</time>
				</trkpt>
				<trkpt lat="46.080520" lon="1.298260">
					<ele>467</ele>
					<time>2019-02-10T16:53:44Z</time>
				</trkpt>
				<trkpt lat="46.081390" lon="1.298260">
					<ele>475</ele>
					<time>2019-02-10T16:54:44Z</time>
				</trkpt>
				<trkpt lat="46.082200" lon="1.297910">
					<ele>480</ele>
					<time>2019-02-10T16:55:44Z</time>
				</trkpt>
				<trkpt lat="46.082420" lon="1.297390">
					<ele>482</ele>
					<time>2019-02-10T16:56:44Z</time>
				</trkpt>
				<trkpt lat="46.082560" lon="1.296760">
					<ele>482</ele>
					<time>2019-02-10T16:57:44Z</time>
				</trkpt>
				<trkpt lat="46.082150" lon="1.296300">
					<ele>482</ele>
					<time>2019-02-10T16:58:44Z</time>
				</trkpt>
				<trkpt lat="46.081970" lon="1.295790">
					<ele>480</ele>
					<time>2019-02-10T16:59:44Z</time>
				</trkpt>
				<trkpt lat="46.081800" lon="1.295250">
					<ele>479</ele>
					<time>2019-02-10T17:00:44Z</time>
				</trkpt>
				<trkpt lat="46.081530" lon="1.294890">
					<ele>478</ele>
					<time>2019-02-10T17:01:44Z</time>
				</trkpt>
				<trkpt lat="46.081120" lon="1.294540">
					<ele>475</ele>
					<time>2019-02-10T17:02:44Z</time>
				</trkpt>
				<trkpt lat="46.080340" lon="1.294100">
					<ele>470</ele>
					<time>2019-02-10T17:03:44Z</time>
				</trkpt>
				<trkpt lat="46.079690" lon="1.293590">
					<ele>465</ele>
					<time>2019-02-10T17:04:44Z</time>
				</trkpt>
				<trkpt lat="46.079050" lon="1.293160">
					<ele>459</ele>
					<time>2019-02-10T17:05:44Z</time>
				</trkpt>
				<trkpt lat="46.078500" lon="1.293470">
					<ele>459</ele>
					<time>2019-02-10T17:06:44Z</time>
				</trkpt>
				<trkpt lat="46.077510" lon="1.293670">
					<ele>453</ele>
					<time>2019-02-10T17:07:44Z</time>
				</trkpt>
				<trkpt lat="46.077100" lon="1.293520">
					<ele>448</ele>
					<time>2019-02-10T17:08:44Z</time>
				</trkpt>
				<trkpt lat="46.075970" lon="1.292570">
					<ele>429</ele>
					<time>2019-02-10T17:09:44Z</time>
				</trkpt>
				<trkpt lat="46.076750" lon="1.291990">
					<ele>431</ele>
					<time>2019-02-10T17:10:44Z</time>
				</trkpt>
				<trkpt lat="46.077920" lon="1.291450">
					<ele>436</ele>
					<time>2019-02-10T17:11:44Z</time>
				</trkpt>
				<trkpt lat="46.078750" lon="1.291470">
					<ele>443</ele>
					<time>2019-02-10T17:12:44Z</time>
				</trkpt>
				<trkpt lat="46.079720" lon="1.291090">
					<ele>446</ele>
					<time>2019-02-10T17:13:44Z</time>
				</trkpt>
				<trkpt lat="46.080910" lon="1.290840">
					<ele>445</ele>
					<time>2019-02-10T17:14:44Z</time>
				</trkpt>
				<trkpt lat="46.081760" lon="1.290510">
					<ele>446</ele>
					<time>2019-02-10T17:15:44Z</time>
				</trkpt>
				<trkpt lat="46.082890" lon="1.289790">
					<ele>441</ele>
					<time>2019-02-10T17:16:44Z</time>
				</trkpt>
				<trkpt lat="46.082800" lon="1.289280">
					<ele>438</ele>
					<time>2019-02-10T17:17:44Z</time>
				</trkpt>
				<trkpt lat="46.082500" lon="1.288770">
					<ele>433</ele>
					<time>2019-02-10T17:18:44Z</time>
				</trkpt>
				<trkpt lat="46.082180" lon="1.288390">
					<ele>429</ele>
					<time>2019-02-10T17:19:44Z</time>
				</trkpt>
				<trkpt lat="46.081570" lon="1.288000">
					<ele>427</ele>
					<time>2019-02-10T17:20:44Z</time>
				</trkpt>
				<trkpt lat="46.081160" lon="1.288310">
					<ele>426</ele>
					<time>2019-02-10T17:21:44Z</time>
				</trkpt>
				<trkpt lat="46.080720" lon="1.288850">
					<ele>425</ele>
					<time>2019-02-10T17:22:44Z</time>
				</trkpt>
				<trkpt lat="46.080180" lon="1.288030">
					<ele>419</ele>
					<time>2019-02-10T17:23:44Z</time>
				</trkpt>
				<trkpt lat="46.079880" lon="1.287420">
					<ele>419</ele>
					<time>2019-02-10T17:24:44Z</time>
				</trkpt>
				<trkpt lat="46.079370" lon="1.286580">
					<ele>418</ele>
					<time>2019-02-10T17:25:44Z</time>
				</trkpt>
				<trkpt lat="46.078800" lon="1.285550">
					<ele>414</ele>
					<time>2019-02-10T17:26:44Z</time>
				</trkpt>
				<trkpt lat="46.078450" lon="1.284920">
					<ele>414</ele>
					<time>2019-02-10T17:27:44Z</time>
				</trkpt>
				<trkpt lat="46.078340" lon="1.284410">
					<ele>414</ele>
					<time>2019-02-10T17:28:44Z</time>
				</trkpt>
				<trkpt lat="46.077780" lon="1.284020">
					<ele>413</ele>
					<time>2019-02-10T17:29:44Z</time>
				</trkpt>
				<trkpt lat="46.077030" lon="1.283410">
					<ele>411</ele>
					<time>2019-02-10T17:30:44Z</time>
				</trkpt>
				<trkpt lat="46.076380" lon="1.283100">
					<ele>410</ele>
					<time>2019-02-10T17:31:44Z</time>
				</trkpt>
				<trkpt lat="46.076110" lon="1.282820">
					<ele>411</ele>
					<time>2019-02-10T17:32:44Z</time>
				</trkpt>
				<trkpt lat="46.075920" lon="1.282290">
					<ele>411</ele>
					<time>2019-02-10T17:33:44Z</time>
				</trkpt>
				<trkpt lat="46.075710" lon="1.281880">
					<ele>411</ele>
					<time>2019-02-10T17:34:44Z</time>
				</trkpt>
				<trkpt lat="46.075250" lon="1.281290">
					<ele>413</ele>
					<time>2019-02-10T17:35:44Z</time>
				</trkpt>
				<trkpt lat="46.075100" lon="1.280500">
					<ele>409</ele>
					<time>2019-02-10T17:36:44Z</time>
				</trkpt>
				<trkpt lat="46.075050" lon="1.279990">
					<ele>407</ele>
					<time>2019-02-10T17:37:44Z</time>
				</trkpt>
				<trkpt lat="46.074870" lon="1.278790">
					<ele>402</ele>
					<time>2019-02-10T17:38:44Z</time>
				</trkpt>
				<trkpt lat="46.074800" lon="1.278080">
					<ele>404</ele>
					<time>2019-02-10T17:39:44Z</time>
				</trkpt>
				<trkpt lat="46.074840" lon="1.277470">
					<ele>407</ele>
					<time>2019-02-10T17:40:44Z</time>
				</trkpt>
				<trkpt lat="46.074910" lon="1.276850">
					<ele>407</ele>
					<time>2019-02-10T17:41:44Z</time>
				</trkpt>
				<trkpt lat="46.074980" lon="1.276110">
					<ele>404</ele>
					<time>2019-02-10T17:42:44Z</time>
				</trkpt>
				<trkpt lat="46.074640" lon="1.275140">
					<ele>401</ele>
					<time>2019-02-10T17:43:44Z</time>
				</trkpt>
				<trkpt lat="46.074060" lon="1.275350">
					<ele>402</ele>
					<time>2019-02-10T17:44:44Z</time>
				</trkpt>
				<trkpt lat="46.073190" lon="1.275830">
					<ele>404</ele>
					<time>2019-02-10T17:45:44Z</time>
				</trkpt>
				<trkpt lat="46.072450" lon="1.276110">
					<ele>401</ele>
					<time>2019-02-10T17:46:44Z</time>
				</trkpt>
				<trkpt lat="46.071720" lon="1.276040">
					<ele>399</ele>
					<time>2019-02-10T17:47:44Z</time>
				</trkpt>
				<trkpt lat="46.071250" lon="1.275550">
					<ele>395</ele>
					<time>2019-02-10T17:48:44Z</time>
				</trkpt>
				<trkpt lat="46.070940" lon="1.275040">
					<ele>392</ele>
					<time>2019-02-10T17:49:44Z</time>
				</trkpt>
				<trkpt lat="46.070630" lon="1.274680">
					<ele>388</ele>
					<time>2019-02-10T17:50:44Z</time>
				</trkpt>
				<trkpt lat="46.070520" lon="1.274020">
					<ele>388</ele>
					<time>2019-02-10T17:51:44Z</time>
				</trkpt>
				<trkpt lat="46.070180" lon="1.273330">
					<ele>386</ele>
					<time>2019-02-10T17:52:44Z</time>
				</trkpt>
				<trkpt lat="46.069810" lon="1.272360">
					<ele>385</ele>
					<time>2019-02-10T17:53:44Z</time>
				</trkpt>
				<trkpt lat="46.069810" lon="1.271750">
					<ele>383</ele>
					<time>2019-02-10T17:54:44Z</time>
				</trkpt>
				<trkpt lat="46.070340" lon="1.271560">
					<ele>381</ele>
					<time>2019-02-10T17:55:44Z</time>
				</trkpt>
				<trkpt lat="46.070930" lon="1.271650">
					<ele>379</ele>
					<time>2019-02-10T17:56:44Z</time>
				</trkpt>
				<trkpt lat="46.071760" lon="1.271540">
					<ele>370</ele>
					<time>2019-02-10T17:57:44Z</time>
				</trkpt>
				<trkpt lat="46.072900" lon="1.271130">
					<ele>372</ele>
					<time>2019-02-10T17:58:44Z</time>
				</trkpt>
				<trkpt lat="46.073380" lon="1.270910">
					<ele>376</ele>
					<time>2019-02-10T17:59:44Z</time>
				</trkpt>
				<trkpt lat="46.073390" lon="1.270300">
					<ele>376</ele>
					<time>2019-02-10T18:00:44Z</time>
				</trkpt>
				<trkpt lat="46.073270" lon="1.269390">
					<ele>373</ele>
					<time>2019-02-10T18:01:44Z</time>
				</trkpt>
				<trkpt lat="46.073090" lon="1.268730">
					<ele>370</ele>
					<time>2019-02-10T18:02:44Z</time>
				</trkpt>
				<trkpt lat="46.072740" lon="1.267770">
					<ele>369</ele>
					<time>2019-02-10T18:03:44Z</time>
				</trkpt>
				<trkpt lat="46.072450" lon="1.267430">
					<ele>370</ele>
					<time>2019-02-10T18:04:44Z</time>
				</trkpt>
				<trkpt lat="46.071810" lon="1.266870">
					<ele>367</ele>
					<time>2019-02-10T18:05:44Z</time>
				</trkpt>
				<trkpt lat="46.071860" lon="1.266470">
					<ele>366</ele>
					<time>2019-02-10T18:06:44Z</time>
				</trkpt>
				<trkpt lat="46.072200" lon="1.264490">
					<ele>358</ele>
					<time>2019-02-10T18:07:44Z</time>
				</trkpt>
				<trkpt lat="46.072300" lon="1.263680">
					<ele>356</ele>
					<time>2019-02-10T18:08:44Z</time>
				</trkpt>
				<trkpt lat="46.072530" lon="1.262070">
					<ele>355</ele>
					<time>2019-02-10T18:09:44Z</time>
				</trkpt>
				<trkpt lat="46.072730" lon="1.260520">
					<ele>354</ele>
					<time>2019-02-10T18:10:44Z</time>
				</trkpt>
				<trkpt lat="46.072950" lon="1.259770">
					<ele>352</ele>
					<time>2019-02-10T18:11:44Z</time>
				</trkpt>
				<trkpt lat="46.073270" lon="1.259030">
					<ele>352</ele>
					<time>2019-02-10T18:12:44Z</time>
				</trkpt>
				<trkpt lat="46.073590" lon="1.258320">
					<ele>353</ele>
					<time>2019-02-10T18:13:44Z</time>
				</trkpt>
				<trkpt lat="46.073770" lon="1.257380">
					<ele>352</ele>
					<time>2019-02-10T18:14:44Z</time>
				</trkpt>
				<trkpt lat="46.073860" lon="1.256940">
					<ele>352</ele>
					<time>2019-02-10T18:15:44Z</time>
				</trkpt>
				<trkpt lat="46.073940" lon="1.256320">
					<ele>354</ele>
					<time>2019-02-10T18:16:44Z</time>
				</trkpt>
				<trkpt lat="46.073910" lon="1.255410">
					<ele>357</ele>
					<time>2019-02-10T18:17:44Z</time>
				</trkpt>
				<trkpt lat="46.073870" lon="1.254790">
					<ele>358</ele>
					<time>2019-02-10T18:18:44Z</time>
				</trkpt>
				<trkpt lat="46.073870" lon="1.254060">
					<ele>360</ele>
					<time>2019-02-10T18:19:44Z</time>
				</trkpt>
				<trkpt lat="46.073950" lon="1.253410">
					<ele>360</ele>
					<time>2019-02-10T18:20:44Z</time>
				</trkpt>
				<trkpt lat="46.073450" lon="1.253180">
					<ele>359</ele>
					<time>2019-02-10T18:21:44Z</time>
				</trkpt>
				<trkpt lat="46.072830" lon="1.253210">
					<ele>360</ele>
					<time>2019-02-10T18:22:44Z</time>
				</trkpt>
				<trkpt lat="46.071530" lon="1.253360">
					<ele>359</ele>
					<time>2019-02-10T18:23:44Z</time>
				</trkpt>
				<trkpt lat="46.070790" lon="1.253230">
					<ele>352</ele>
					<time>2019-02-10T18:24:44Z</time>
				</trkpt>
				<trkpt lat="46.070120" lon="1.252990">
					<ele>349</ele>
					<time>2019-02-10T18:25:44Z</time>
				</trkpt>
				<trkpt lat="46.069810" lon="1.252920">
					<ele>348</ele>
					<time>2019-02-10T18:26:44Z</time>
				</trkpt>
				<trkpt lat="46.069550" lon="1.252890">
					<ele>348</ele>
					<time>2019-02-10T18:27:44Z</time>
				</trkpt>
				<trkpt lat="46.069420" lon="1.252710">
					<ele>347</ele>
					<time>2019-02-10T18:28:44Z</time>
				</trkpt>
				<trkpt lat="46.069250" lon="1.252600">
					<ele>346</ele>
					<time>2019-02-10T18:29:44Z</time>
				</trkpt>
				<trkpt lat="46.069040" lon="1.252770">
					<ele>347</ele>
					<time>2019-02-10T18:30:44Z</time>
				</trkpt>
				<trkpt lat="46.068800" lon="1.253140">
					<ele>348</ele>
					<time>2019-02-10T18:31:44Z</time>
				</trkpt>
				<trkpt lat="46.068490" lon="1.253080">
					<ele>346</ele>
					<time>2019-02-10T18:32:44Z</time>
				</trkpt>
				<trkpt lat="46.068370" lon="1.252790">
					<ele>346</ele>
					<time>2019-02-10T18:33:44Z</time>
				</trkpt>
				<trkpt lat="46.068130" lon="1.252730">
					<ele>350</ele>
					<time>2019-02-10T18:34:44Z</time>
				</trkpt>
				<trkpt lat="46.068030" lon="1.253290">
					<ele>349</ele>
					<time>2019-02-10T18:35:44Z</time>
				</trkpt>
				<trkpt lat="46.067950" lon="1.253980">
					<ele>349</ele>
					<time>2019-02-10T18:36:44Z</time>
				</trkpt>
				<trkpt lat="46.067870" lon="1.254500">
					<ele>349</ele>
					<time>2019-02-10T18:37:44Z</time>
				</trkpt>
				<trkpt lat="46.067610" lon="1.254570">
					<ele>350</ele>
					<time>2019-02-10T18:38:44Z</time>
				</trkpt>
				<trkpt lat="46.067260" lon="1.254400">
					<ele>351</ele>
					<time>2019-02-10T18:39:44Z</time>
				</trkpt>
				<trkpt lat="46.066900" lon="1.254340">
					<ele>350</ele>
					<time>2019-02-10T18:40:44Z</time>
				</trkpt>
				<trkpt lat="46.066750" lon="1.254400">
					<ele>349</ele>
					<time>2019-02-10T18:41:44Z</time>
				</trkpt>
				<trkpt lat="46.066600" lon="1.254530">
					<ele>348</ele>
					<time>2019-02-10T18:42:44Z</time>
				</trkpt>
				<trkpt lat="46.066390" lon="1.254900">
					<ele>346</ele>
					<time>2019-02-10T18:43:44Z</time>
				</trkpt>
				<trkpt lat="46.066200" lon="1.255110">
					<ele>347</ele>
					<time>2019-02-10T18:44:44Z</time>
				</trkpt>
				<trkpt lat="46.065890" lon="1.255130">
					<ele>347</ele>
					<time>2019-02-10T18:45:44Z</time>
				</trkpt>
				<trkpt lat="46.065640" lon="1.255170">
					<ele>346</ele>
					<time>2019-02-10T18:46:44Z</time>
				</trkpt>
				<trkpt lat="46.065070" lon="1.255290">
					<ele>344</ele>
					<time>2019-02-10T18:47:44Z</time>
				</trkpt>
				<trkpt lat="46.064660" lon="1.255370">
					<ele>344</ele>
					<time>2019-02-10T18:48:44Z</time>
				</trkpt>
				<trkpt lat="46.064290" lon="1.255570">
					<ele>343</ele>
					<time>2019-02-10T18:49:44Z</time>
				</trkpt>
				<trkpt lat="46.064090" lon="1.255890">
					<ele>343</ele>
					<time>2019-02-10T18:50:44Z</time>
				</trkpt>
				<trkpt lat="46.063870" lon="1.256390">
					<ele>344</ele>
					<time>2019-02-10T18:51:44Z</time>
				</trkpt>
				<trkpt lat="46.063680" lon="1.256800">
					<ele>344</ele>
					<time>2019-02-10T18:52:44Z</time>
				</trkpt>
				<trkpt lat="46.063440" lon="1.257220">
					<ele>343</ele>
					<time>2019-02-10T18:53:44Z</time>
				</trkpt>
				<trkpt lat="46.063630" lon="1.258500">
					<ele>346</ele>
					<time>2019-02-10T18:54:44Z</time>
				</trkpt>
				<trkpt lat="46.063660" lon="1.259070">
					<ele>347</ele>
					<time>2019-02-10T18:55:44Z</time>
				</trkpt>
				<trkpt lat="46.063690" lon="1.259750">
					<ele>348</ele>
					<time>2019-02-10T18:56:44Z</time>
				</trkpt>
				<trkpt lat="46.063790" lon="1.260330">
					<ele>350</ele>
					<time>2019-02-10T18:57:44Z</time>
				</trkpt>
				<trkpt lat="46.063890" lon="1.261120">
					<ele>351</ele>
					<time>2019-02-10T18:58:44Z</time>
				</trkpt>
				<trkpt lat="46.063980" lon="1.261620">
					<ele>351</ele>
					<time>2019-02-10T18:59:44Z</time>
				</trkpt>
				<trkpt lat="46.064000" lon="1.262520">
					<ele>355</ele>
					<time>2019-02-10T19:00:44Z</time>
				</trkpt>
				<trkpt lat="46.064240" lon="1.263930">
					<ele>362</ele>
					<time>2019-02-10T19:01:44Z</time>
				</trkpt>
				<trkpt lat="46.064200" lon="1.264630">
					<ele>365</ele>
					<time>2019-02-10T19:02:44Z</time>
				</trkpt>
				<trkpt lat="46.064230" lon="1.265130">
					<ele>367</ele>
					<time>2019-02-10T19:03:44Z</time>
				</trkpt>
				<trkpt lat="46.064450" lon="1.265500">
					<ele>365</ele>
					<time>2019-02-10T19:04:44Z</time>
				</trkpt>
				<trkpt lat="46.064770" lon="1.266000">
					<ele>363</ele>
					<time>2019-02-10T19:05:44Z</time>
				</trkpt>
				<trkpt lat="46.064890" lon="1.266780">
					<ele>368</ele>
					<time>2019-02-10T19:06:44Z</time>
				</trkpt>
				<trkpt lat="46.065270" lon="1.267070">
					<ele>367</ele>
					<time>2019-02-10T19:07:44Z</time>
				</trkpt>
				<trkpt lat="46.065690" lon="1.267320">
					<ele>366</ele>
					<time>2019-02-10T19:08:44Z</time>
				</trkpt>
				<trkpt lat="46.065960" lon="1.268000">
					<ele>369</ele>
					<time>2019-02-10T19:09:44Z</time>
				</trkpt>
				<trkpt lat="46.065960" lon="1.268420">
					<ele>371</ele>
					<time>2019-02-10T19:10:44Z</time>
				</trkpt>
				<trkpt lat="46.066380" lon="1.269120">
					<ele>368</ele>
					<time>2019-02-10T19:11:44Z</time>
				</trkpt>
				<trkpt lat="46.065870" lon="1.269390">
					<ele>374</ele>
					<time>2019-02-10T19:12:44Z</time>
				</trkpt>
				<trkpt lat="46.065580" lon="1.269380">
					<ele>376</ele>
					<time>2019-02-10T19:13:44Z</time>
				</trkpt>
				<trkpt lat="46.064920" lon="1.269570">
					<ele>380</ele>
					<time>2019-02-10T19:14:44Z</time>
				</trkpt>
				<trkpt lat="46.064500" lon="1.269650">
					<ele>385</ele>
					<time>2019-02-10T19:15:44Z</time>
				</trkpt>
				<trkpt lat="46.064120" lon="1.269320">
					<ele>390</ele>
					<time>2019-02-10T19:16:44Z</time>
				</trkpt>
				<trkpt lat="46.063800" lon="1.269320">
					<ele>391</ele>
					<time>2019-02-10T19:17:44Z</time>
				</trkpt>
				<trkpt lat="46.063480" lon="1.269380">
					<ele>391</ele>
					<time>2019-02-10T19:18:44Z</time>
				</trkpt>
				<trkpt lat="46.063210" lon="1.269680">
					<ele>390</ele>
					<time>2019-02-10T19:19:44Z</time>
				</trkpt>
				<trkpt lat="46.062980" lon="1.270100">
					<ele>389</ele>
					<time>2019-02-10T19:20:44Z</time>
				</trkpt>
				<trkpt lat="46.062990" lon="1.270620">
					<ele>389</ele>
					<time>2019-02-10T19:21:44Z</time>
				</trkpt>
				<trkpt lat="46.063110" lon="1.271630">
					<ele>390</ele>
					<time>2019-02-10T19:22:44Z</time>
				</trkpt>
				<trkpt lat="46.063100" lon="1.272300">
					<ele>389</ele>
					<time>2019-02-10T19:23:44Z</time>
				</trkpt>
				<trkpt lat="46.062840" lon="1.272770">
					<ele>387</ele>
					<time>2019-02-10T19:24:44Z</time>
				</trkpt>
				<trkpt lat="46.062440" lon="1.273510">
					<ele>381</ele>
					<time>2019-02-10T19:25:44Z</time>
				</trkpt>
				<trkpt lat="46.062680" lon="1.274210">
					<ele>378</ele>
					<time>2019-02-10T19:26:44Z</time>
				</trkpt>
				<trkpt lat="46.062600" lon="1.274830">
					<ele>374</ele>
					<time>2019-02-10T19:27:44Z</time>
				</trkpt>
				<trkpt lat="46.062530" lon="1.275260">
					<ele>372</ele>
					<time>2019-02-10T19:28:44Z</time>
				</trkpt>
				<trkpt lat="46.062220" lon="1.275940">
					<ele>373</ele>
					<time>2019-02-10T19:29:44Z</time>
				</trkpt>
				<trkpt lat="46.062270" lon="1.276760">
					<ele>373</ele>
					<time>2019-02-10T19:30:44Z</time>
				</trkpt>
				<trkpt lat="46.062240" lon="1.277620">
					<ele>372</ele>
					<time>2019-02-10T19:31:44Z</time>
				</trkpt>
				<trkpt lat="46.062160" lon="1.278380">
					<ele>372</ele>
					<time>2019-02-10T19:32:44Z</time>
				</trkpt>
				<trkpt lat="46.061870" lon="1.278760">
					<ele>372</ele>
					<time>2019-02-10T19:33:44Z</time>
				</trkpt>
				<trkpt lat="46.061390" lon="1.279010">
					<ele>373</ele>
					<time>2019-02-10T19:34:44Z</time>
				</trkpt>
				<trkpt lat="46.061060" lon="1.279160">
					<ele>374</ele>
					<time>2019-02-10T19:35:44Z</time>
				</trkpt>
				<trkpt lat="46.060620" lon="1.279320">
					<ele>374</ele>
					<time>2019-02-10T19:36:44Z</time>
				</trkpt>
				<trkpt lat="46.060170" lon="1.279570">
					<ele>375</ele>
					<time>2019-02-10T19:37:44Z</time>
				</trkpt>
				<trkpt lat="46.059700" lon="1.279750">
					<ele>376</ele>
					<time>2019-02-10T19:38:44Z</time>
				</trkpt>
				<trkpt lat="46.059420" lon="1.280000">
					<ele>376</ele>
					<time>2019-02-10T19:39:44Z</time>
				</trkpt>
				<trkpt lat="46.059010" lon="1.280200">
					<ele>373</ele>
					<time>2019-02-10T19:40:44Z</time>
				</trkpt>
				<trkpt lat="46.058820" lon="1.280220">
					<ele>372</ele>
					<time>2019-02-10T19:41:44Z</time>
				</trkpt>
				<trkpt lat="46.058540" lon="1.280260">
					<ele>369</ele>
					<time>2019-02-10T19:42:44Z</time>
				</trkpt>
				<trkpt lat="46.058310" lon="1.280220">
					<ele>367</ele>
					<time>2019-02-10T19:43:44Z</time>
				</trkpt>
				<trkpt lat="46.057740" lon="1.280920">
					<ele>369</ele>
					<time>2019-02-10T19:44:44Z</time>
				</trkpt>		</trkseg>
	</trk>
</gpx>


Partager le fichier

Télécharger

Télécharger le fichier (26 Ko)